Time;durP1;ratioP1;P1;durP2;ratioP2;P2;SDS_P1;SDS_P2;PMS_P1;PMS_P2;Temp;Humidity;BMP_temperature;BMP_pressure;BME280_temperature;BME280_humidity;BME280_pressure;Samples;Min_cycle;Max_cycle;Signal;HPM_P1;HPM_P2
2022/02/05 00:00:06;;;;;;;1.40;0.50;;;3.40;99.90;;;;;;4185480;28;20503;-78
2022/02/05 00:02:06;;;;;;;2.40;0.60;;;3.30;99.90;;;;;;4184373;28;20464;-78
2022/02/05 00:04:12;;;;;;;1.43;0.47;;;3.30;99.90;;;;;;4194353;28;20800;-79
2022/02/05 00:06:18;;;;;;;1.13;0.50;;;3.30;99.90;;;;;;4198565;28;20465;-78
2022/02/05 00:08:32;;;;;;;1.07;0.60;;;3.30;99.90;;;;;;4192241;28;20514;-77
2022/02/05 00:11:06;;;;;;;1.50;0.60;;;3.30;99.90;;;;;;4195699;28;20494;-79
2022/02/05 00:13:25;;;;;;;1.23;0.60;;;3.30;99.90;;;;;;4196255;28;20450;-79
2022/02/05 00:15:36;;;;;;;5.30;0.80;;;3.30;99.90;;;;;;4197575;28;20502;-78
2022/02/05 00:38:53;;;;;;;1.47;0.80;;;3.30;99.90;;;;;;4159884;28;20484;-77
2022/02/05 00:40:58;;;;;;;1.37;0.80;;;3.30;99.90;;;;;;4191769;28;20468;-77
2022/02/05 00:43:00;;;;;;;3.73;1.10;;;3.60;99.90;;;;;;4189408;28;20451;-78
2022/02/05 00:45:06;;;;;;;1.73;0.90;;;3.30;99.90;;;;;;4194576;28;20476;-78
2022/02/05 00:47:08;;;;;;;5.60;1.53;;;3.30;99.90;;;;;;4193467;28;20459;-78
2022/02/05 00:49:12;;;;;;;3.47;1.07;;;3.80;99.90;;;;;;4191159;28;20626;-79
2022/02/05 00:51:18;;;;;;;4.10;0.80;;;3.30;99.90;;;;;;4191053;28;20467;-78
2022/02/05 00:53:28;;;;;;;1.73;0.93;;;3.30;99.90;;;;;;4191711;28;20525;-77
2022/02/05 00:55:34;;;;;;;2.07;1.10;;;3.30;99.90;;;;;;4191823;28;20999;-78
2022/02/05 00:57:45;;;;;;;2.13;0.90;;;3.30;99.90;;;;;;4184617;28;20469;-78
2022/02/05 00:59:47;;;;;;;4.43;1.00;;;3.30;99.90;;;;;;4190548;28;20499;-77
2022/02/05 01:01:50;;;;;;;3.13;0.93;;;3.20;99.90;;;;;;4190389;28;20453;-79
2022/02/05 01:03:51;;;;;;;1.70;0.80;;;3.30;99.90;;;;;;4181684;28;20515;-77
2022/02/05 01:05:54;;;;;;;3.70;1.10;;;3.20;99.90;;;;;;4191161;28;20490;-78
2022/02/05 01:07:57;;;;;;;7.03;1.20;;;3.20;99.90;;;;;;4194444;28;20471;-77
2022/02/05 01:09:59;;;;;;;2.00;0.80;;;3.20;99.90;;;;;;4184839;28;20506;-78
2022/02/05 01:12:02;;;;;;;5.43;1.20;;;3.20;99.90;;;;;;4181705;28;21045;-77
2022/02/05 01:14:07;;;;;;;3.23;1.13;;;3.20;99.90;;;;;;4187052;28;20466;-77
2022/02/05 01:16:16;;;;;;;4.00;1.17;;;3.20;99.90;;;;;;4192925;28;20844;-77
2022/02/05 01:18:19;;;;;;;5.23;1.17;;;3.20;99.90;;;;;;4185635;28;20559;-77
2022/02/05 01:22:41;;;;;;;2.03;1.10;;;3.20;99.90;;;;;;4186382;28;20459;-77
2022/02/05 01:24:45;;;;;;;3.97;1.10;;;3.20;99.90;;;;;;4183197;28;20857;-77
2022/02/05 01:26:52;;;;;;;5.20;1.30;;;3.20;99.90;;;;;;4196520;28;20482;-77
2022/02/05 01:29:02;;;;;;;6.73;1.60;;;3.20;99.90;;;;;;4197383;28;20863;-77
2022/02/05 01:31:04;;;;;;;4.77;1.40;;;3.20;99.90;;;;;;4195955;28;20465;-78
2022/02/05 01:33:19;;;;;;;5.03;1.20;;;3.20;99.90;;;;;;4186453;28;21006;-77
2022/02/05 01:35:29;;;;;;;4.23;1.00;;;3.20;99.90;;;;;;4188072;28;20484;-77
2022/02/05 01:49:35;;;;;;;3.10;1.50;;;3.10;99.90;;;;;;4192615;28;20466;-77
2022/02/05 01:51:57;;;;;;;5.50;1.80;;;3.10;99.90;;;;;;4196963;28;20464;-77
2022/02/05 01:54:17;;;;;;;5.37;1.40;;;3.00;99.90;;;;;;4193323;28;20475;-76
2022/02/05 01:56:32;;;;;;;4.43;1.50;;;3.00;99.90;;;;;;4188155;28;20473;-77
2022/02/05 01:58:51;;;;;;;5.07;1.77;;;3.00;99.90;;;;;;4192506;28;20948;-77
2022/02/05 02:05:35;;;;;;;5.97;1.70;;;3.00;99.90;;;;;;4188775;28;21126;-77
2022/02/05 02:10:15;;;;;;;7.40;1.83;;;3.00;99.90;;;;;;4183923;28;20499;-77
2022/02/05 02:12:21;;;;;;;7.77;1.83;;;3.00;99.90;;;;;;4195880;28;20478;-77
2022/02/05 02:14:43;;;;;;;7.20;2.10;;;3.00;99.90;;;;;;4196369;28;20459;-78
2022/02/05 02:19:10;;;;;;;6.60;1.90;;;2.90;99.90;;;;;;4159881;28;20961;-77
2022/02/05 02:21:23;;;;;;;8.73;2.33;;;2.90;99.90;;;;;;4193981;28;20550;-77
2022/02/05 02:23:38;;;;;;;4.03;2.03;;;2.90;99.90;;;;;;4196057;28;20471;-77
2022/02/05 02:25:53;;;;;;;4.40;1.97;;;2.90;99.90;;;;;;4219099;22;21080;-81
2022/02/05 02:28:03;;;;;;;5.20;1.97;;;2.90;99.90;;;;;;4195375;28;20474;-82
2022/02/05 02:30:12;;;;;;;3.77;2.20;;;2.90;99.90;;;;;;4194923;28;20748;-82
2022/02/05 02:32:15;;;;;;;8.27;2.83;;;2.90;99.90;;;;;;4197101;28;20551;-82
2022/02/05 02:34:22;;;;;;;8.20;2.60;;;2.80;99.90;;;;;;4194114;28;20466;-82
2022/02/05 02:36:32;;;;;;;8.20;2.20;;;2.80;99.90;;;;;;4196878;28;20569;-82
2022/02/05 02:38:41;;;;;;;5.73;2.23;;;2.80;99.90;;;;;;4197289;28;20448;-81
2022/02/05 02:40:47;;;;;;;6.83;2.17;;;2.80;99.90;;;;;;4195145;28;20467;-81
2022/02/05 02:42:52;;;;;;;5.77;1.70;;;2.90;99.90;;;;;;4195741;28;20736;-81
2022/02/05 02:44:54;;;;;;;8.40;2.10;;;2.70;99.90;;;;;;4197210;28;20518;-82
2022/02/05 02:46:56;;;;;;;5.40;2.30;;;2.70;99.90;;;;;;4198326;28;20524;-82
2022/02/05 02:48:59;;;;;;;8.03;2.20;;;2.70;99.90;;;;;;4200751;28;20462;-82
2022/02/05 02:58:19;;;;;;;4.33;2.40;;;2.80;99.90;;;;;;4180648;28;20450;-81
2022/02/05 03:00:21;;;;;;;8.40;2.50;;;2.80;99.90;;;;;;4176832;28;20476;-81
2022/02/05 03:02:25;;;;;;;7.97;2.40;;;2.80;99.90;;;;;;4177434;28;20460;-81
2022/02/05 03:04:27;;;;;;;12.40;2.90;;;2.80;99.90;;;;;;4196234;28;20463;-82
2022/02/05 03:06:29;;;;;;;6.37;2.30;;;2.80;99.90;;;;;;4191022;28;20482;-82
2022/02/05 03:08:32;;;;;;;3.73;2.60;;;2.80;99.90;;;;;;4192755;28;20460;-82
2022/02/05 03:10:33;;;;;;;7.23;2.73;;;2.80;99.90;;;;;;4189179;28;20470;-81
2022/02/05 03:12:35;;;;;;;11.73;3.00;;;2.80;99.90;;;;;;4197638;28;20466;-81
2022/02/05 03:14:37;;;;;;;7.17;2.40;;;2.80;99.90;;;;;;4196788;28;20836;-82
2022/02/05 03:16:46;;;;;;;7.77;2.40;;;2.80;99.90;;;;;;4190087;28;20543;-82
2022/02/05 03:19:00;;;;;;;6.40;2.13;;;3.30;99.90;;;;;;4182644;28;20514;-81
2022/02/05 03:21:02;;;;;;;4.60;1.77;;;2.80;99.90;;;;;;4204769;28;20455;-81
2022/02/05 03:23:04;;;;;;;5.03;1.80;;;2.80;99.90;;;;;;4199311;28;20460;-81
2022/02/05 03:25:08;;;;;;;3.53;2.10;;;2.70;99.90;;;;;;4199219;28;20499;-81
2022/02/05 03:27:12;;;;;;;7.90;1.87;;;2.70;99.90;;;;;;4197182;28;20452;-81
2022/02/05 03:29:13;;;;;;;3.07;1.50;;;2.70;99.90;;;;;;4197575;28;20475;-81
2022/02/05 03:31:15;;;;;;;6.07;1.40;;;2.70;99.90;;;;;;4198191;28;20446;-81
2022/02/05 03:33:17;;;;;;;5.40;1.37;;;2.60;99.90;;;;;;4199321;28;20962;-81
2022/02/05 03:35:19;;;;;;;3.53;1.30;;;2.60;99.90;;;;;;4198991;28;20976;-81
2022/02/05 03:37:21;;;;;;;1.57;1.23;;;2.60;99.90;;;;;;4199429;28;20460;-82
2022/02/05 03:39:24;;;;;;;7.33;2.07;;;2.60;99.90;;;;;;4199996;28;20514;-81
2022/02/05 03:41:27;;;;;;;7.80;1.40;;;2.60;99.90;;;;;;4199177;28;20517;-81
2022/02/05 03:43:29;;;;;;;4.30;1.70;;;2.50;99.90;;;;;;4191780;28;21021;-81
2022/02/05 03:45:32;;;;;;;8.10;1.80;;;2.50;99.90;;;;;;4203065;28;20995;-82
2022/02/05 03:47:34;;;;;;;2.37;1.40;;;2.50;99.90;;;;;;4208919;28;20471;-81
2022/02/05 03:49:36;;;;;;;4.33;1.90;;;2.50;99.90;;;;;;4204956;28;20454;-81
2022/02/05 03:51:38;;;;;;;4.03;1.80;;;2.50;99.90;;;;;;4200065;28;20464;-81
2022/02/05 03:53:40;;;;;;;4.43;1.80;;;2.50;99.90;;;;;;4186662;28;20441;-81
2022/02/05 03:55:45;;;;;;;4.40;1.50;;;2.50;99.90;;;;;;4186962;28;20502;-81
2022/02/05 03:57:48;;;;;;;2.83;1.57;;;2.40;99.90;;;;;;4207212;28;20550;-81
2022/02/05 03:59:50;;;;;;;5.97;1.80;;;2.40;99.90;;;;;;4198518;28;20480;-82
2022/02/05 04:01:53;;;;;;;3.03;1.80;;;2.40;99.90;;;;;;4186397;28;20452;-82
2022/02/05 04:03:55;;;;;;;6.67;1.63;;;2.40;99.90;;;;;;4186572;28;20456;-81
2022/02/05 04:05:58;;;;;;;3.97;2.10;;;2.40;99.90;;;;;;4200115;28;20536;-82
2022/02/05 04:08:00;;;;;;;3.67;1.80;;;2.40;99.90;;;;;;4201664;28;20539;-81
2022/02/05 04:10:04;;;;;;;5.33;2.33;;;2.40;99.90;;;;;;4201786;28;20562;-82
2022/02/05 04:16:47;;;;;;;2.77;1.77;;;2.30;99.90;;;;;;4203996;28;20473;-81
2022/02/05 04:18:50;;;;;;;4.17;1.90;;;2.30;99.90;;;;;;4208368;28;20464;-81
2022/02/05 04:20:52;;;;;;;4.43;1.80;;;2.30;99.90;;;;;;4206677;28;20895;-81
2022/02/05 04:22:54;;;;;;;4.33;2.00;;;2.20;99.90;;;;;;4205425;28;20467;-82
2022/02/05 04:24:56;;;;;;;5.50;2.03;;;2.20;99.90;;;;;;4192248;28;20995;-82
2022/02/05 04:26:58;;;;;;;4.37;1.87;;;2.20;99.90;;;;;;4200138;28;20513;-82
2022/02/05 04:28:59;;;;;;;6.83;2.23;;;2.20;99.90;;;;;;4203819;28;21038;-82
2022/02/05 04:31:03;;;;;;;4.27;2.13;;;2.20;99.90;;;;;;4197229;28;20467;-82
2022/02/05 04:33:04;;;;;;;7.63;2.27;;;2.20;99.90;;;;;;4197855;28;20466;-82
2022/02/05 04:35:07;;;;;;;5.13;2.30;;;2.20;99.90;;;;;;4198577;28;20479;-82
2022/02/05 04:37:08;;;;;;;9.83;2.53;;;2.20;99.90;;;;;;4197736;28;20475;-82
2022/02/05 04:39:13;;;;;;;5.83;2.40;;;2.20;99.90;;;;;;4201690;28;20957;-82
2022/02/05 04:41:20;;;;;;;3.83;2.03;;;2.30;99.90;;;;;;4191366;28;20472;-82
2022/02/05 04:43:32;;;;;;;6.80;2.37;;;2.30;99.90;;;;;;4197923;28;20965;-82
2022/02/05 04:45:56;;;;;;;6.17;2.43;;;2.30;99.90;;;;;;4186445;28;20486;-82
2022/02/05 04:48:24;;;;;;;6.67;2.40;;;2.30;99.90;;;;;;4197952;28;20884;-82
2022/02/05 04:50:53;;;;;;;9.90;2.60;;;2.30;99.90;;;;;;4194813;28;20823;-82
2022/02/05 04:53:14;;;;;;;4.57;2.23;;;2.30;99.90;;;;;;4193929;28;20457;-82
2022/02/05 04:57:50;;;;;;;7.13;2.47;;;2.30;99.90;;;;;;4198529;28;20458;-83
2022/02/05 05:02:30;;;;;;;4.83;2.27;;;2.30;99.90;;;;;;4195167;28;20461;-82
2022/02/05 05:04:39;;;;;;;9.03;2.33;;;2.20;99.90;;;;;;4194024;28;20470;-82
2022/02/05 05:07:49;;;;;;;5.57;2.27;;;2.20;99.90;;;;;;4204894;28;20473;-82
2022/02/05 05:09:22;;;;;;;5.00;2.10;;;2.20;99.90;;;;;;4194151;28;20497;-82
2022/02/05 05:20:41;;;;;;;4.87;2.13;;;2.20;99.90;;;;;;4192027;28;20493;-81
2022/02/05 05:22:43;;;;;;;5.50;2.43;;;2.20;99.90;;;;;;4191161;28;20503;-82
2022/02/05 05:24:45;;;;;;;5.33;2.47;;;2.20;99.90;;;;;;4192219;28;20613;-82
2022/02/05 05:26:47;;;;;;;7.17;2.50;;;2.20;99.90;;;;;;4197375;28;20604;-82
2022/02/05 05:28:48;;;;;;;7.27;2.40;;;2.30;99.90;;;;;;4192923;28;20460;-82
2022/02/05 05:30:50;;;;;;;5.60;2.40;;;2.30;99.90;;;;;;4193695;28;20533;-81
2022/02/05 05:32:52;;;;;;;6.53;2.37;;;2.30;99.90;;;;;;4197757;28;20467;-82
2022/02/05 05:34:53;;;;;;;5.60;2.80;;;2.30;99.90;;;;;;4196277;28;20475;-82
2022/02/05 05:36:57;;;;;;;6.90;2.70;;;2.40;99.90;;;;;;4197413;28;20520;-82
2022/02/05 05:39:02;;;;;;;4.63;2.33;;;2.30;99.90;;;;;;4198854;28;20963;-82
2022/02/05 05:41:03;;;;;;;3.53;2.03;;;2.30;99.90;;;;;;4194469;28;20594;-81
2022/02/05 05:43:17;;;;;;;7.50;2.90;;;2.30;99.90;;;;;;4196180;28;20870;-81
2022/02/05 05:45:33;;;;;;;11.33;3.20;;;2.30;99.90;;;;;;4194852;28;20496;-81
2022/02/05 05:47:48;;;;;;;5.80;2.70;;;2.20;99.90;;;;;;4197706;28;20508;-82
2022/02/05 05:50:03;;;;;;;6.00;2.53;;;2.30;99.90;;;;;;4196653;28;20971;-82
2022/02/05 05:52:07;;;;;;;6.43;3.07;;;2.30;99.90;;;;;;4204079;28;20467;-81
2022/02/05 05:54:09;;;;;;;5.87;3.07;;;2.30;99.90;;;;;;4198952;28;20478;-82
2022/02/05 05:56:11;;;;;;;7.27;3.60;;;2.30;99.90;;;;;;4199488;28;20984;-81
2022/02/05 05:58:13;;;;;;;8.47;3.60;;;2.50;99.90;;;;;;4198074;28;20473;-82
2022/02/05 06:00:16;;;;;;;5.37;3.30;;;2.30;99.90;;;;;;4197795;28;20491;-82
2022/02/05 06:02:18;;;;;;;8.67;3.90;;;2.30;99.90;;;;;;4199628;28;20521;-81
2022/02/05 06:04:19;;;;;;;8.17;3.73;;;2.30;99.90;;;;;;4198946;28;20796;-81
2022/02/05 06:06:21;;;;;;;6.93;3.80;;;2.30;99.90;;;;;;4193624;28;20486;-81
2022/02/05 06:08:24;;;;;;;9.07;4.10;;;2.30;99.90;;;;;;4200049;28;20490;-81
2022/02/05 06:10:26;;;;;;;9.73;4.53;;;2.30;99.90;;;;;;4199325;28;20452;-82
2022/02/05 06:12:28;;;;;;;7.93;4.13;;;2.30;99.90;;;;;;4204258;28;20448;-82
2022/02/05 06:14:30;;;;;;;9.77;4.53;;;2.30;99.90;;;;;;4197255;28;20456;-81
2022/02/05 06:16:33;;;;;;;9.33;4.33;;;2.40;99.90;;;;;;4199425;28;20495;-80
2022/02/05 06:18:35;;;;;;;9.10;4.13;;;2.40;99.90;;;;;;4207280;28;20460;-81
2022/02/05 06:20:38;;;;;;;8.97;4.07;;;2.30;99.90;;;;;;4208731;28;20479;-81
2022/02/05 06:22:40;;;;;;;8.37;4.13;;;2.40;99.90;;;;;;4207751;28;20480;-80
2022/02/05 06:24:43;;;;;;;10.80;4.07;;;2.30;99.90;;;;;;4210134;28;20472;-80
2022/02/05 06:26:45;;;;;;;11.53;5.03;;;2.40;99.90;;;;;;4200517;28;20476;-80
2022/02/05 06:28:47;;;;;;;7.67;4.00;;;2.40;99.90;;;;;;4201652;28;21055;-80
2022/02/05 06:30:48;;;;;;;8.90;3.90;;;2.40;99.90;;;;;;4203936;28;20460;-81
2022/02/05 06:32:50;;;;;;;8.07;4.17;;;2.40;99.90;;;;;;4197989;28;20525;-80
2022/02/05 06:34:52;;;;;;;9.30;4.37;;;2.40;99.90;;;;;;4206290;28;21041;-80
2022/02/05 06:36:54;;;;;;;6.30;4.07;;;2.50;99.90;;;;;;4207334;28;20451;-81
2022/02/05 06:38:56;;;;;;;6.30;4.03;;;2.50;99.90;;;;;;4199679;28;20444;-80
2022/02/05 06:40:59;;;;;;;9.10;3.80;;;2.50;99.90;;;;;;4195335;28;20502;-81
2022/02/05 06:43:01;;;;;;;11.10;4.00;;;2.50;99.90;;;;;;4198711;28;20455;-81
2022/02/05 06:45:03;;;;;;;7.40;3.40;;;2.50;99.90;;;;;;4196899;28;20887;-81
2022/02/05 06:47:06;;;;;;;9.63;3.33;;;2.60;99.90;;;;;;4193244;28;20463;-81
2022/02/05 06:49:08;;;;;;;4.43;2.37;;;2.60;99.90;;;;;;4193495;28;20470;-81
2022/02/05 06:51:10;;;;;;;6.97;2.93;;;2.60;99.90;;;;;;4198769;28;20984;-81
2022/02/05 06:53:11;;;;;;;5.07;2.37;;;2.80;99.90;;;;;;4198052;28;20456;-81
2022/02/05 06:55:13;;;;;;;4.30;3.00;;;2.60;99.90;;;;;;4200892;28;20478;-81
2022/02/05 06:57:16;;;;;;;8.97;2.50;;;2.70;99.90;;;;;;4198411;28;20825;-80
2022/02/05 06:59:18;;;;;;;10.47;3.00;;;2.70;99.90;;;;;;4184798;28;20957;-81
2022/02/05 07:01:20;;;;;;;7.17;2.73;;;2.60;99.90;;;;;;4187128;28;20484;-81
2022/02/05 07:03:22;;;;;;;4.90;2.47;;;2.70;99.90;;;;;;4197464;28;20812;-81
2022/02/05 07:05:23;;;;;;;5.10;2.57;;;2.70;99.90;;;;;;4198019;28;20483;-80
2022/02/05 07:07:26;;;;;;;6.93;2.80;;;2.70;99.90;;;;;;4199993;28;20488;-81
2022/02/05 07:09:28;;;;;;;9.23;2.57;;;2.70;99.90;;;;;;4201165;28;20464;-81
2022/02/05 07:11:30;;;;;;;6.47;2.77;;;2.70;99.90;;;;;;4200538;28;20452;-81
2022/02/05 07:13:33;;;;;;;5.47;2.67;;;2.70;99.90;;;;;;4204373;28;20467;-80
2022/02/05 07:15:40;;;;;;;7.13;2.73;;;2.80;99.90;;;;;;4197943;28;20586;-80
2022/02/05 07:17:48;;;;;;;7.50;2.70;;;2.90;99.90;;;;;;4197486;28;20875;-80
2022/02/05 07:20:02;;;;;;;5.03;2.87;;;2.80;99.90;;;;;;4202782;28;20483;-81
2022/02/05 07:22:04;;;;;;;6.13;2.97;;;2.90;99.90;;;;;;4204366;28;20455;-80
2022/02/05 07:24:20;;;;;;;8.10;3.20;;;2.90;99.90;;;;;;4201975;28;20466;-80
2022/02/05 07:31:06;;;;;;;7.83;3.23;;;3.00;99.90;;;;;;4202804;28;20590;-81
2022/02/05 07:33:07;;;;;;;8.37;3.83;;;3.00;99.90;;;;;;4194704;28;20549;-80
2022/02/05 07:35:09;;;;;;;8.80;3.50;;;3.00;99.90;;;;;;4200621;28;20915;-81
2022/02/05 07:37:11;;;;;;;7.77;3.40;;;3.00;99.90;;;;;;4203114;28;20945;-80
2022/02/05 07:39:13;;;;;;;8.60;3.20;;;3.00;99.90;;;;;;4203728;28;20456;-80
2022/02/05 07:41:15;;;;;;;6.23;3.20;;;3.00;99.90;;;;;;4200810;28;20480;-80
2022/02/05 07:43:17;;;;;;;10.20;3.97;;;3.00;99.90;;;;;;4206404;28;20471;-81
2022/02/05 07:45:20;;;;;;;7.43;3.10;;;3.10;99.90;;;;;;4199601;28;20574;-81
2022/02/05 07:47:23;;;;;;;9.13;3.50;;;3.00;99.90;;;;;;4202428;28;20455;-81
2022/02/05 07:49:25;;;;;;;9.30;3.90;;;3.00;99.90;;;;;;4200050;28;20493;-81
2022/02/05 07:51:27;;;;;;;8.40;4.40;;;3.20;99.90;;;;;;4204055;28;20932;-80
2022/02/05 07:53:30;;;;;;;12.80;4.47;;;3.00;99.90;;;;;;4195961;28;20444;-80
2022/02/05 07:55:32;;;;;;;9.77;4.37;;;3.00;99.90;;;;;;4203226;28;20545;-80
2022/02/05 07:57:34;;;;;;;12.60;4.17;;;3.00;99.90;;;;;;4200741;28;20459;-80
2022/02/05 07:59:35;;;;;;;12.53;4.83;;;3.00;99.90;;;;;;4200693;28;20497;-80
2022/02/05 08:01:39;;;;;;;8.47;4.37;;;3.00;99.90;;;;;;4202791;28;20537;-80
2022/02/05 08:03:41;;;;;;;10.33;4.30;;;3.20;99.90;;;;;;4207980;28;21032;-81
2022/02/05 08:05:42;;;;;;;8.07;3.40;;;3.10;99.90;;;;;;4198681;28;21069;-80
2022/02/05 08:07:44;;;;;;;11.27;4.10;;;3.10;99.90;;;;;;4196810;28;20456;-81
2022/02/05 08:09:54;;;;;;;10.47;3.30;;;3.20;99.90;;;;;;4200980;28;20832;-80
2022/02/05 08:12:00;;;;;;;7.97;3.83;;;3.20;99.90;;;;;;4199855;28;21040;-80
2022/02/05 08:14:07;;;;;;;9.30;3.37;;;3.20;99.90;;;;;;4203949;28;20465;-81
2022/02/05 08:16:26;;;;;;;12.00;3.97;;;3.20;99.90;;;;;;4197576;28;20484;-81
2022/02/05 08:18:29;;;;;;;10.67;3.80;;;3.30;99.90;;;;;;4186552;28;20459;-80
2022/02/05 08:20:31;;;;;;;7.63;3.10;;;3.30;99.90;;;;;;4199845;28;20496;-80
2022/02/05 08:22:32;;;;;;;10.40;3.00;;;3.30;99.90;;;;;;4209763;28;20912;-80
2022/02/05 08:24:34;;;;;;;5.57;2.80;;;3.30;99.90;;;;;;4198349;28;20841;-80
2022/02/05 08:26:37;;;;;;;7.40;3.30;;;3.30;99.90;;;;;;4211445;22;20908;-79
2022/02/05 08:28:39;;;;;;;5.23;2.70;;;3.30;99.90;;;;;;4194403;28;20465;-79
2022/02/05 08:30:41;;;;;;;8.30;3.03;;;3.50;99.90;;;;;;4204822;28;20455;-78
2022/02/05 08:32:44;;;;;;;6.20;2.80;;;4.00;99.90;;;;;;4203331;28;20489;-78
2022/02/05 08:34:47;;;;;;;11.07;2.50;;;3.60;99.90;;;;;;4189979;28;20465;-79
2022/02/05 08:36:50;;;;;;;7.03;3.00;;;3.70;99.90;;;;;;4199129;28;20902;-79
2022/02/05 08:38:53;;;;;;;8.13;2.97;;;3.90;99.90;;;;;;4204249;28;20924;-78
2022/02/05 08:40:55;;;;;;;4.43;2.10;;;3.80;99.90;;;;;;4188658;28;20488;-79
2022/02/05 08:42:58;;;;;;;7.40;2.87;;;3.90;99.90;;;;;;4189270;28;20453;-79
2022/02/05 08:45:00;;;;;;;7.83;2.57;;;4.10;99.90;;;;;;4190214;28;20559;-79
2022/02/05 08:47:02;;;;;;;7.77;2.57;;;4.00;99.90;;;;;;4194109;28;20945;-79
2022/02/05 08:49:04;;;;;;;7.43;2.90;;;4.10;99.90;;;;;;4196057;28;20469;-79
2022/02/05 08:51:07;;;;;;;8.83;2.60;;;4.10;99.90;;;;;;4198447;28;20448;-79
2022/02/05 08:53:09;;;;;;;6.03;2.67;;;4.20;99.90;;;;;;4195529;28;20472;-78
2022/02/05 08:55:13;;;;;;;6.63;2.73;;;4.20;99.90;;;;;;4198576;28;20454;-79
2022/02/05 08:57:15;;;;;;;11.60;3.17;;;4.20;99.90;;;;;;4195831;28;20468;-79
2022/02/05 08:59:17;;;;;;;8.53;2.73;;;4.30;99.90;;;;;;4198316;28;20963;-78
2022/02/05 09:01:23;;;;;;;5.87;2.90;;;4.30;99.90;;;;;;4195336;28;20488;-79
2022/02/05 09:03:30;;;;;;;9.03;2.80;;;4.40;99.90;;;;;;4193208;28;21026;-79
2022/02/05 09:05:40;;;;;;;11.33;2.60;;;4.40;99.90;;;;;;4193744;28;20490;-78
2022/02/05 09:07:44;;;;;;;8.20;3.07;;;4.40;99.90;;;;;;4192129;28;20494;-79
2022/02/05 09:10:00;;;;;;;4.53;2.07;;;4.40;99.90;;;;;;4192072;28;20443;-79
2022/02/05 09:12:17;;;;;;;7.30;2.30;;;4.40;99.90;;;;;;4193098;28;20451;-78
2022/02/05 09:14:30;;;;;;;6.37;2.33;;;4.40;99.90;;;;;;4195408;28;20452;-79
2022/02/05 09:16:32;;;;;;;4.83;2.67;;;4.40;99.90;;;;;;4193669;28;20487;-79
2022/02/05 09:18:35;;;;;;;9.33;2.53;;;4.40;99.90;;;;;;4192724;28;20456;-79
2022/02/05 09:20:37;;;;;;;7.60;2.30;;;4.40;99.90;;;;;;4196452;28;20452;-78
2022/02/05 09:22:39;;;;;;;7.57;2.40;;;4.40;99.90;;;;;;4194527;28;20504;-79
2022/02/05 09:24:42;;;;;;;7.13;2.47;;;4.50;99.90;;;;;;4196754;28;20444;-79
2022/02/05 09:26:46;;;;;;;5.73;2.20;;;4.50;99.90;;;;;;4194687;28;20903;-79
2022/02/05 09:28:48;;;;;;;7.10;2.50;;;4.50;99.90;;;;;;4188696;28;20986;-79
2022/02/05 09:31:12;;;;;;;5.30;2.10;;;4.50;99.90;;;;;;4186090;28;20444;-79
2022/02/05 09:33:13;;;;;;;6.10;2.33;;;4.50;99.90;;;;;;4183353;28;20446;-79
2022/02/05 09:35:14;;;;;;;9.97;2.20;;;4.60;99.90;;;;;;4187814;28;20484;-79
2022/02/05 09:37:16;;;;;;;5.77;2.70;;;4.70;99.90;;;;;;4185073;28;20460;-79
2022/02/05 09:39:18;;;;;;;10.27;2.80;;;4.70;99.90;;;;;;4187335;28;20485;-79
2022/02/05 09:41:21;;;;;;;8.43;2.50;;;4.80;99.90;;;;;;4186947;28;20488;-79
2022/02/05 09:43:25;;;;;;;16.97;2.30;;;4.90;99.90;;;;;;4190639;28;20465;-78
2022/02/05 09:45:29;;;;;;;6.90;1.80;;;5.10;99.90;;;;;;4186628;28;20468;-79
2022/02/05 09:47:31;;;;;;;4.87;1.90;;;5.00;99.90;;;;;;4188041;28;20460;-79
2022/02/05 09:49:33;;;;;;;4.70;2.03;;;5.00;99.90;;;;;;4193705;28;20448;-79
2022/02/05 09:51:44;;;;;;;4.33;1.77;;;5.00;99.90;;;;;;4189974;28;20444;-79
2022/02/05 09:53:48;;;;;;;8.00;2.33;;;5.00;99.90;;;;;;4190058;28;20525;-79
2022/02/05 09:55:51;;;;;;;7.33;2.17;;;5.00;99.90;;;;;;4188017;28;21249;-79
2022/02/05 09:57:54;;;;;;;8.50;1.90;;;5.00;99.90;;;;;;4188154;28;20492;-79
2022/02/05 09:59:59;;;;;;;9.70;2.20;;;5.00;99.90;;;;;;4194971;28;20453;-78
2022/02/05 10:02:21;;;;;;;7.80;2.27;;;5.00;99.90;;;;;;4189494;28;20576;-78
2022/02/05 10:04:23;;;;;;;5.67;1.90;;;5.10;99.90;;;;;;4189927;28;21687;-79
2022/02/05 10:06:28;;;;;;;8.37;2.30;;;5.40;99.90;;;;;;4189736;28;20488;-79
2022/02/05 10:08:36;;;;;;;6.17;2.27;;;5.30;99.90;;;;;;4188919;28;20552;-79
2022/02/05 10:10:39;;;;;;;9.00;2.80;;;5.20;99.90;;;;;;4188952;28;20949;-79
2022/02/05 10:12:41;;;;;;;5.73;2.17;;;5.10;99.90;;;;;;4186069;28;20942;-79
2022/02/05 10:14:52;;;;;;;4.37;2.10;;;5.10;99.90;;;;;;4183202;28;20524;-79
2022/02/05 10:16:55;;;;;;;6.03;1.70;;;5.10;99.90;;;;;;4187066;28;20932;-79
2022/02/05 10:18:58;;;;;;;6.00;2.13;;;5.10;99.90;;;;;;4197560;28;20894;-79
2022/02/05 10:21:01;;;;;;;6.33;1.90;;;5.10;99.90;;;;;;4196103;28;20476;-76
2022/02/05 10:23:09;;;;;;;6.83;2.20;;;5.20;99.90;;;;;;4195550;28;20550;-79
2022/02/05 10:25:19;;;;;;;7.40;1.77;;;5.20;99.90;;;;;;4187895;28;20495;-79
2022/02/05 10:27:28;;;;;;;7.90;1.50;;;5.20;99.90;;;;;;4190171;28;20456;-80
2022/02/05 10:29:32;;;;;;;8.30;1.80;;;5.30;99.90;;;;;;4186562;28;20964;-80
2022/02/05 10:31:59;;;;;;;5.17;1.90;;;5.40;99.90;;;;;;4186684;28;20511;-80
2022/02/05 10:34:10;;;;;;;8.43;1.90;;;5.40;99.90;;;;;;4188892;28;21168;-79
2022/02/05 10:36:21;;;;;;;7.07;1.70;;;5.40;99.90;;;;;;4192902;28;20521;-79
2022/02/05 10:38:49;;;;;;;4.20;1.67;;;5.40;99.90;;;;;;4197666;28;20456;-79
2022/02/05 10:42:49;;;;;;;8.80;1.70;;;5.50;99.90;;;;;;4192135;28;20473;-80
2022/02/05 10:43:32;;;;;;;5.57;2.37;;;5.50;99.90;;;;;;4192035;28;20433;-80
2022/02/05 10:45:43;;;;;;;5.30;1.70;;;5.50;99.90;;;;;;4196444;28;20468;-80
2022/02/05 10:47:55;;;;;;;5.50;1.60;;;5.60;99.90;;;;;;4197227;28;20452;-79
2022/02/05 10:49:57;;;;;;;6.30;1.80;;;5.60;99.90;;;;;;4185662;28;20869;-80
2022/02/05 10:52:00;;;;;;;5.60;1.80;;;5.80;99.90;;;;;;4197945;28;20470;-80
2022/02/05 10:54:11;;;;;;;6.80;1.90;;;5.70;99.90;;;;;;4199902;28;20515;-80
2022/02/05 10:56:18;;;;;;;7.73;1.50;;;5.70;99.90;;;;;;4191122;28;20476;-81
2022/02/05 10:58:31;;;;;;;7.17;1.80;;;5.80;99.90;;;;;;4189896;28;20920;-80
2022/02/05 11:05:18;;;;;;;4.93;1.40;;;5.70;99.90;;;;;;4196177;28;20440;-78
2022/02/05 11:07:22;;;;;;;7.10;1.77;;;5.70;99.90;;;;;;4195163;28;21187;-80
2022/02/05 11:09:24;;;;;;;2.80;1.37;;;5.70;99.90;;;;;;4201949;28;20484;-80
2022/02/05 11:14:27;;;;;;;4.77;1.50;;;5.70;99.90;;;;;;4143379;28;20973;-79
2022/02/05 11:18:55;;;;;;;4.70;1.30;;;5.70;99.90;;;;;;4195076;28;20945;-78
2022/02/05 11:20:58;;;;;;;5.40;1.53;;;5.80;99.90;;;;;;4198343;28;20492;-79
2022/02/05 11:23:03;;;;;;;4.33;1.37;;;5.80;99.90;;;;;;4197307;28;20498;-78
2022/02/05 11:25:07;;;;;;;7.93;1.70;;;5.90;99.90;;;;;;4189468;28;20448;-78
2022/02/05 11:27:09;;;;;;;4.67;1.43;;;5.90;99.90;;;;;;4195536;28;20458;-78
2022/02/05 11:29:27;;;;;;;10.23;1.93;;;6.00;99.90;;;;;;4192080;28;20466;-78
2022/02/05 11:31:32;;;;;;;7.13;1.57;;;6.10;99.90;;;;;;4185063;28;20827;-78
2022/02/05 11:33:34;;;;;;;6.50;1.33;;;6.10;99.90;;;;;;4195475;28;20522;-79
2022/02/05 11:35:46;;;;;;;7.87;1.30;;;6.20;99.90;;;;;;4199279;28;20513;-79
2022/02/05 11:37:54;;;;;;;6.67;1.30;;;6.20;99.90;;;;;;4192015;28;20479;-79
2022/02/05 11:39:56;;;;;;;6.87;1.20;;;6.20;99.90;;;;;;4193826;28;20474;-79
2022/02/05 11:42:24;;;;;;;4.33;1.40;;;6.20;99.90;;;;;;4194327;28;20516;-80
2022/02/05 11:44:29;;;;;;;5.80;1.07;;;6.30;99.90;;;;;;4183589;28;20469;-81
2022/02/05 11:46:33;;;;;;;5.87;1.17;;;6.30;99.90;;;;;;4183697;28;20556;-80
2022/02/05 11:48:53;;;;;;;3.80;1.20;;;6.40;99.90;;;;;;4190443;28;20554;-80
2022/02/05 11:51:10;;;;;;;3.40;1.20;;;6.40;99.90;;;;;;4190344;28;20542;-80
2022/02/05 11:53:12;;;;;;;5.50;1.30;;;6.50;99.90;;;;;;4189507;28;20462;-80
2022/02/05 11:55:16;;;;;;;3.60;1.40;;;6.60;99.90;;;;;;4188171;28;20495;-79
2022/02/05 11:57:17;;;;;;;3.20;1.33;;;6.60;99.90;;;;;;4184850;28;20470;-79
2022/02/05 11:59:24;;;;;;;4.50;1.10;;;6.80;99.90;;;;;;4190200;28;20475;-80
2022/02/05 12:01:35;;;;;;;4.63;1.20;;;7.10;99.00;;;;;;4183940;28;20833;-80
2022/02/05 12:03:37;;;;;;;4.93;1.10;;;7.40;91.90;;;;;;4194957;28;20527;-81
2022/02/05 12:05:49;;;;;;;3.07;1.00;;;7.80;83.00;;;;;;4199348;28;20919;-81
2022/02/05 12:08:20;;;;;;;5.00;1.10;;;8.20;75.40;;;;;;4192647;28;20213;-81
2022/02/05 12:10:35;;;;;;;4.43;1.00;;;8.40;69.30;;;;;;4196628;28;20254;-80
2022/02/05 12:12:40;;;;;;;5.10;1.10;;;8.70;65.90;;;;;;4187555;28;20204;-82
2022/02/05 12:15:22;;;;;;;3.43;1.03;;;9.00;63.00;;;;;;4187715;28;20640;-80
2022/02/05 12:17:28;;;;;;;3.17;0.80;;;9.50;60.70;;;;;;4187753;28;20214;-81
2022/02/05 12:19:30;;;;;;;5.53;1.30;;;9.80;57.60;;;;;;4191539;28;20228;-81
2022/02/05 12:21:51;;;;;;;2.57;1.07;;;10.10;56.80;;;;;;4199298;28;20581;-81
2022/02/05 12:26:35;;;;;;;4.53;1.33;;;10.60;55.90;;;;;;4194417;28;20249;-81
2022/02/05 12:28:38;;;;;;;4.33;1.20;;;10.90;55.70;;;;;;4197884;28;20778;-81
2022/02/05 12:30:42;;;;;;;4.00;1.30;;;11.00;54.90;;;;;;4190559;28;20215;-81